Time;durP1;ratioP1;P1;durP2;ratioP2;P2;SDS_P1;SDS_P2;PMS_P1;PMS_P2;Temp;Humidity;BMP_temperature;BMP_pressure;BME280_temperature;BME280_humidity;BME280_pressure;Samples;Min_cycle;Max_cycle;Signal;HPM_P1;HPM_P2
2021/12/26 00:01:06;;;;;;;4.77;1.60;;;-4.30;99.90;;;;;;4995725;28;20238;-60
2021/12/26 00:03:32;;;;;;;2.70;1.00;;;-4.30;99.90;;;;;;5012952;28;20172;-59
2021/12/26 00:06:03;;;;;;;4.70;1.20;;;-4.30;99.90;;;;;;5012705;28;20263;-60
2021/12/26 00:08:29;;;;;;;3.40;1.50;;;-4.20;99.90;;;;;;5012483;28;20174;-59
2021/12/26 00:10:55;;;;;;;2.43;1.00;;;-4.20;99.90;;;;;;5013193;28;20281;-60
2021/12/26 00:13:21;;;;;;;3.57;1.30;;;-4.20;99.90;;;;;;5012703;28;20189;-58
2021/12/26 00:15:47;;;;;;;8.07;1.40;;;-4.20;99.90;;;;;;5012861;28;20184;-60
2021/12/26 00:18:13;;;;;;;2.07;1.00;;;-4.20;99.90;;;;;;4995350;28;20236;-59
2021/12/26 00:20:40;;;;;;;3.03;0.97;;;-4.20;99.90;;;;;;4995279;28;20220;-60
2021/12/26 00:23:06;;;;;;;1.43;1.03;;;-4.20;99.90;;;;;;5012614;28;20193;-63
2021/12/26 00:25:33;;;;;;;3.23;1.30;;;-4.20;99.90;;;;;;5032738;28;20167;-60
2021/12/26 00:28:00;;;;;;;2.30;1.20;;;-4.20;99.90;;;;;;5032619;28;20191;-59
2021/12/26 00:30:26;;;;;;;2.37;1.13;;;-4.20;99.90;;;;;;5017714;28;20201;-60
2021/12/26 00:32:52;;;;;;;1.77;1.07;;;-4.20;99.90;;;;;;5012499;28;20182;-60
2021/12/26 00:35:20;;;;;;;5.13;1.47;;;-4.10;99.90;;;;;;5012418;28;20672;-61
2021/12/26 00:37:46;;;;;;;2.63;1.23;;;-4.20;99.90;;;;;;5012074;28;20229;-61
2021/12/26 00:40:14;;;;;;;2.33;1.20;;;-4.20;99.90;;;;;;5012649;28;20200;-60
2021/12/26 00:42:41;;;;;;;3.13;1.20;;;-4.30;99.90;;;;;;5012523;28;20180;-60
2021/12/26 00:45:08;;;;;;;2.80;1.30;;;-4.30;99.90;;;;;;5012161;28;20177;-69
2021/12/26 00:47:34;;;;;;;2.03;0.97;;;-4.20;99.90;;;;;;5012592;28;20314;-58
2021/12/26 00:50:01;;;;;;;2.63;1.23;;;-4.20;99.90;;;;;;5014716;28;20589;-59
2021/12/26 00:52:27;;;;;;;3.03;1.17;;;-4.20;99.90;;;;;;5013789;28;20192;-66
2021/12/26 00:54:53;;;;;;;2.83;1.30;;;-4.20;99.90;;;;;;5017497;28;20747;-61
2021/12/26 00:57:19;;;;;;;6.53;1.40;;;-4.20;99.90;;;;;;5012146;28;20690;-59
2021/12/26 00:59:45;;;;;;;3.87;1.60;;;-4.20;99.90;;;;;;5012504;28;20181;-59
2021/12/26 01:02:11;;;;;;;2.63;1.60;;;-4.20;99.90;;;;;;5012079;28;20184;-60
2021/12/26 01:04:39;;;;;;;3.23;1.77;;;-4.20;99.90;;;;;;5012339;28;20208;-61
2021/12/26 01:07:19;;;;;;;5.43;1.80;;;-4.30;99.90;;;;;;5011797;28;20214;-62
2021/12/26 01:09:49;;;;;;;4.17;1.50;;;-4.30;99.90;;;;;;5011982;28;20196;-61
2021/12/26 01:12:16;;;;;;;2.57;1.30;;;-4.30;99.90;;;;;;5012066;28;20178;-60
2021/12/26 01:14:48;;;;;;;3.30;1.43;;;-4.20;99.90;;;;;;5011874;28;20240;-59
2021/12/26 01:17:18;;;;;;;3.23;1.43;;;-4.20;99.90;;;;;;5011789;28;20240;-60
2021/12/26 01:19:48;;;;;;;3.47;1.40;;;-4.20;99.90;;;;;;5012253;28;20185;-60
2021/12/26 01:22:15;;;;;;;4.03;1.43;;;-4.20;99.90;;;;;;5012105;28;20193;-64
2021/12/26 01:24:43;;;;;;;5.57;1.53;;;-4.20;99.90;;;;;;5025353;28;20248;-60
2021/12/26 01:27:09;;;;;;;2.93;1.40;;;-4.30;99.90;;;;;;5031798;28;20186;-61
2021/12/26 01:29:36;;;;;;;4.37;1.50;;;-4.30;99.90;;;;;;5023834;28;20177;-60
2021/12/26 01:32:03;;;;;;;4.47;1.60;;;-4.20;99.90;;;;;;5012227;28;20182;-60
2021/12/26 01:34:29;;;;;;;2.83;1.30;;;-4.20;99.90;;;;;;5011852;28;20185;-61
2021/12/26 01:36:55;;;;;;;3.30;1.40;;;-4.20;99.90;;;;;;5012012;28;20228;-60
2021/12/26 01:39:21;;;;;;;5.63;1.50;;;-4.20;99.90;;;;;;5011220;28;20204;-60
2021/12/26 01:41:49;;;;;;;4.17;1.37;;;-4.20;99.90;;;;;;5012089;28;20174;-59
2021/12/26 01:44:16;;;;;;;3.40;1.40;;;-4.20;99.90;;;;;;5011454;28;20547;-60
2021/12/26 01:46:43;;;;;;;5.23;1.57;;;-4.20;99.90;;;;;;5011852;28;20204;-60
2021/12/26 01:49:17;;;;;;;4.23;1.83;;;-4.30;99.90;;;;;;5011664;28;20519;-61
2021/12/26 01:51:45;;;;;;;6.60;1.47;;;-4.30;99.90;;;;;;5028183;28;20178;-61
2021/12/26 01:54:13;;;;;;;6.90;1.67;;;-4.20;99.90;;;;;;5021710;28;20185;-59
2021/12/26 01:56:41;;;;;;;6.43;1.70;;;-4.20;99.90;;;;;;5011876;28;20247;-61
2021/12/26 01:59:09;;;;;;;4.03;1.90;;;-4.10;99.90;;;;;;5011678;28;20265;-66
2021/12/26 02:01:35;;;;;;;3.93;2.00;;;-4.20;99.90;;;;;;5011889;28;20172;-60
2021/12/26 02:04:01;;;;;;;11.23;2.33;;;-4.20;99.90;;;;;;5014076;28;20191;-60
2021/12/26 02:06:27;;;;;;;3.77;1.60;;;-4.20;99.90;;;;;;5015181;28;20189;-59
2021/12/26 02:08:53;;;;;;;4.60;1.73;;;-4.30;99.90;;;;;;5014742;28;20186;-60
2021/12/26 02:11:19;;;;;;;6.83;2.07;;;-4.20;99.90;;;;;;5015015;28;20235;-61
2021/12/26 02:13:45;;;;;;;5.10;1.90;;;-4.10;99.90;;;;;;4997396;28;20648;-61
2021/12/26 02:16:12;;;;;;;6.27;2.00;;;-4.10;99.90;;;;;;5014712;28;20696;-60
2021/12/26 02:18:38;;;;;;;6.77;1.83;;;-4.10;99.90;;;;;;5014899;28;20192;-62
2021/12/26 02:23:52;;;;;;;5.37;2.00;;;-4.10;99.90;;;;;;5018026;28;20275;-59
2021/12/26 02:29:03;;;;;;;6.00;1.77;;;-4.20;99.90;;;;;;5031075;28;20180;-59
2021/12/26 02:31:29;;;;;;;4.20;2.10;;;-4.20;99.90;;;;;;5014138;28;20179;-59
2021/12/26 02:33:54;;;;;;;9.23;2.40;;;-4.20;99.90;;;;;;5014477;28;20268;-60
2021/12/26 02:36:20;;;;;;;3.87;1.90;;;-4.20;99.90;;;;;;5014684;28;20622;-61
2021/12/26 02:38:47;;;;;;;9.47;2.47;;;-4.10;99.90;;;;;;5014026;28;20211;-61
2021/12/26 02:41:13;;;;;;;6.87;1.93;;;-4.20;99.90;;;;;;5014333;28;20182;-60
2021/12/26 02:43:38;;;;;;;6.10;2.23;;;-4.20;99.90;;;;;;5014281;28;20177;-60
2021/12/26 02:46:06;;;;;;;4.83;1.90;;;-4.30;99.90;;;;;;5014710;28;20532;-60
2021/12/26 02:48:36;;;;;;;3.67;1.70;;;-4.20;99.90;;;;;;5014413;28;20252;-60
2021/12/26 02:51:03;;;;;;;4.27;1.87;;;-4.10;99.90;;;;;;5007876;28;20268;-61
2021/12/26 02:53:29;;;;;;;7.77;1.93;;;-4.10;99.90;;;;;;5029714;28;20616;-59
2021/12/26 02:55:58;;;;;;;3.67;1.60;;;-4.10;99.90;;;;;;5014475;28;20268;-59
2021/12/26 02:58:24;;;;;;;3.50;2.00;;;-4.20;99.90;;;;;;5014112;28;20200;-59
2021/12/26 03:01:12;;;;;;;16.60;2.50;;;-4.20;99.90;;;;;;5014566;28;20643;-59
2021/12/26 03:03:39;;;;;;;4.83;1.70;;;-4.20;99.90;;;;;;5013935;28;20218;-60
2021/12/26 03:06:14;;;;;;;3.83;1.90;;;-4.20;99.90;;;;;;5014338;28;20194;-60
2021/12/26 03:08:40;;;;;;;3.80;1.93;;;-4.20;99.90;;;;;;5013974;28;20179;-60
2021/12/26 03:11:07;;;;;;;4.63;2.23;;;-4.20;99.90;;;;;;5013875;28;20327;-61
2021/12/26 03:13:33;;;;;;;3.83;1.87;;;-4.20;99.90;;;;;;5014074;28;20234;-60
2021/12/26 03:15:59;;;;;;;7.40;2.03;;;-4.20;99.90;;;;;;4995230;28;20275;-60
2021/12/26 03:18:25;;;;;;;6.10;2.33;;;-4.30;99.90;;;;;;5013880;28;20526;-59
2021/12/26 03:20:51;;;;;;;3.93;1.80;;;-4.20;99.90;;;;;;5013661;28;20185;-59
2021/12/26 03:23:23;;;;;;;4.17;1.70;;;-4.20;99.90;;;;;;5014838;28;20283;-62
2021/12/26 03:25:49;;;;;;;5.97;1.97;;;-4.20;99.90;;;;;;5015197;28;20186;-60
2021/12/26 03:28:17;;;;;;;3.53;2.00;;;-4.20;99.90;;;;;;5033446;28;20686;-59
2021/12/26 03:30:43;;;;;;;3.37;2.00;;;-4.20;99.90;;;;;;5016006;28;20237;-61
2021/12/26 03:33:11;;;;;;;4.07;1.57;;;-4.20;99.90;;;;;;5013673;28;20625;-59
2021/12/26 03:35:38;;;;;;;4.03;1.90;;;-4.20;99.90;;;;;;4996091;28;20186;-61
2021/12/26 03:38:06;;;;;;;2.63;1.13;;;-4.20;99.90;;;;;;5013125;28;20295;-60
2021/12/26 03:40:32;;;;;;;6.83;1.77;;;-4.20;99.90;;;;;;5013160;28;20195;-60
2021/12/26 03:42:58;;;;;;;3.10;1.20;;;-4.20;99.90;;;;;;5013465;28;20199;-62
2021/12/26 03:45:24;;;;;;;4.83;1.40;;;-4.20;99.90;;;;;;5012989;28;20257;-59
2021/12/26 03:47:50;;;;;;;3.60;1.40;;;-4.20;99.90;;;;;;5013384;28;20182;-60
2021/12/26 03:50:19;;;;;;;6.03;1.83;;;-4.20;99.90;;;;;;5017194;28;20234;-59
2021/12/26 03:52:45;;;;;;;8.07;2.80;;;-4.20;99.90;;;;;;5032515;28;20232;-60
2021/12/26 03:55:12;;;;;;;2.43;1.30;;;-4.30;99.90;;;;;;5015038;28;20198;-60
2021/12/26 03:57:37;;;;;;;11.27;1.90;;;-4.30;99.90;;;;;;5012672;28;20232;-60
2021/12/26 04:00:05;;;;;;;4.93;1.87;;;-4.30;99.90;;;;;;5013361;28;20641;-60
2021/12/26 04:02:31;;;;;;;4.50;1.90;;;-4.20;99.90;;;;;;5012985;28;20194;-59
2021/12/26 04:04:57;;;;;;;5.50;1.67;;;-4.10;99.90;;;;;;5013101;28;20194;-60
2021/12/26 04:07:22;;;;;;;10.00;1.90;;;-4.10;99.90;;;;;;5012169;28;20562;-60
2021/12/26 04:09:48;;;;;;;5.40;1.80;;;-4.10;99.90;;;;;;4995370;28;20267;-60
2021/12/26 04:12:14;;;;;;;5.33;1.60;;;-4.10;99.90;;;;;;5012469;28;20639;-61
2021/12/26 04:14:40;;;;;;;8.03;1.90;;;-4.10;99.90;;;;;;5012578;28;20183;-61
2021/12/26 04:17:05;;;;;;;5.20;1.80;;;-4.20;99.90;;;;;;4994761;28;20287;-62
2021/12/26 04:19:31;;;;;;;4.97;2.13;;;-4.20;99.90;;;;;;5012501;28;20177;-59
2021/12/26 04:21:57;;;;;;;10.50;2.97;;;-4.20;99.90;;;;;;5012124;28;20663;-60
2021/12/26 04:24:23;;;;;;;13.63;2.33;;;-4.10;99.90;;;;;;5022557;28;20199;-60
2021/12/26 04:26:49;;;;;;;11.17;2.20;;;-4.20;99.90;;;;;;5031703;28;20192;-59
2021/12/26 04:29:15;;;;;;;16.03;2.63;;;-4.30;99.90;;;;;;5026665;28;20179;-61
2021/12/26 04:31:40;;;;;;;11.13;2.33;;;-4.30;99.90;;;;;;5012522;28;20187;-61
2021/12/26 04:34:06;;;;;;;19.33;2.20;;;-4.30;99.90;;;;;;4995133;28;20535;-60
2021/12/26 04:36:33;;;;;;;24.67;4.17;;;-4.30;99.90;;;;;;5012189;28;20314;-59
2021/12/26 04:38:59;;;;;;;4.10;2.10;;;-4.30;99.90;;;;;;5012483;28;20173;-59
2021/12/26 04:41:24;;;;;;;5.07;2.10;;;-4.30;99.90;;;;;;5012186;28;20656;-59
2021/12/26 04:43:50;;;;;;;7.93;2.03;;;-4.30;99.90;;;;;;5012151;28;20194;-61
2021/12/26 04:46:16;;;;;;;14.30;3.60;;;-4.30;99.90;;;;;;5012343;28;20182;-60
2021/12/26 04:48:44;;;;;;;36.77;4.77;;;-4.30;99.90;;;;;;5012646;28;20224;-61
2021/12/26 04:51:11;;;;;;;47.13;14.47;;;-4.40;99.90;;;;;;5023368;28;20181;-60
2021/12/26 04:53:38;;;;;;;11.30;4.33;;;-4.40;99.90;;;;;;5027745;28;20208;-60
2021/12/26 04:56:05;;;;;;;65.83;24.40;;;-4.40;99.90;;;;;;5012392;28;20177;-60
2021/12/26 04:58:32;;;;;;;12.83;4.53;;;-4.30;99.90;;;;;;5012147;28;20222;-61
2021/12/26 05:00:57;;;;;;;14.60;4.17;;;-4.30;99.90;;;;;;5012429;28;20217;-58
2021/12/26 05:03:23;;;;;;;26.37;5.00;;;-4.30;99.90;;;;;;5012145;28;20180;-59
2021/12/26 05:05:49;;;;;;;12.03;3.90;;;-4.40;99.90;;;;;;5011706;28;20177;-62
2021/12/26 05:08:15;;;;;;;26.60;4.63;;;-4.40;99.90;;;;;;5012404;28;20261;-59
2021/12/26 05:10:41;;;;;;;10.07;4.30;;;-4.40;99.90;;;;;;5012181;28;20185;-60
2021/12/26 05:13:08;;;;;;;10.13;3.77;;;-4.30;99.90;;;;;;5011877;28;20188;-60
2021/12/26 05:15:34;;;;;;;15.10;4.67;;;-4.30;99.90;;;;;;5012133;28;20225;-60
2021/12/26 05:18:01;;;;;;;13.77;3.87;;;-4.30;99.90;;;;;;5012084;28;20681;-60
2021/12/26 05:20:28;;;;;;;17.93;3.43;;;-4.20;99.90;;;;;;5011825;28;20535;-62
2021/12/26 05:22:55;;;;;;;16.33;3.37;;;-4.20;99.90;;;;;;5011816;28;20184;-59
2021/12/26 05:25:22;;;;;;;18.13;3.60;;;-4.20;99.90;;;;;;5030053;28;20718;-60
2021/12/26 05:27:49;;;;;;;8.73;3.00;;;-4.20;99.90;;;;;;5031534;28;20219;-61
2021/12/26 05:30:17;;;;;;;24.97;3.60;;;-4.20;99.90;;;;;;5017970;28;20182;-59
2021/12/26 05:32:43;;;;;;;18.97;3.17;;;-4.20;99.90;;;;;;5011613;28;20237;-60
2021/12/26 05:35:10;;;;;;;19.87;4.23;;;-4.20;99.90;;;;;;5011532;28;20181;-61
2021/12/26 05:37:37;;;;;;;5.80;1.97;;;-4.20;99.90;;;;;;5011621;28;20300;-59
2021/12/26 05:40:05;;;;;;;16.53;4.33;;;-4.20;99.90;;;;;;5015681;28;20486;-60
2021/12/26 05:42:31;;;;;;;10.60;3.20;;;-4.20;99.90;;;;;;5015204;28;20629;-59
2021/12/26 05:44:58;;;;;;;27.70;3.93;;;-4.30;99.90;;;;;;5015499;28;20189;-62
2021/12/26 05:47:25;;;;;;;8.00;2.70;;;-4.30;99.90;;;;;;5015299;28;20208;-60
2021/12/26 05:49:51;;;;;;;10.10;3.00;;;-4.30;99.90;;;;;;5016377;28;20183;-59
2021/12/26 05:52:18;;;;;;;7.77;2.73;;;-4.30;99.90;;;;;;5034499;28;20530;-60
2021/12/26 05:54:45;;;;;;;10.07;2.27;;;-4.30;99.90;;;;;;5021816;28;20229;-60
2021/12/26 05:57:11;;;;;;;5.37;2.13;;;-4.30;99.90;;;;;;5015045;28;20673;-59
2021/12/26 05:59:37;;;;;;;9.53;2.00;;;-4.30;99.90;;;;;;5015413;28;20194;-59
2021/12/26 06:02:03;;;;;;;7.97;2.17;;;-4.30;99.90;;;;;;4981453;28;20198;-58
2021/12/26 06:04:29;;;;;;;2.87;1.90;;;-4.20;99.90;;;;;;5015396;28;20647;-61
2021/12/26 06:06:55;;;;;;;6.97;2.60;;;-4.30;99.90;;;;;;5015124;28;20216;-60
2021/12/26 06:09:21;;;;;;;9.33;3.50;;;-4.30;99.90;;;;;;4997474;28;20543;-60
2021/12/26 06:11:46;;;;;;;11.93;3.80;;;-4.30;99.90;;;;;;5014882;28;20182;-61
2021/12/26 06:14:12;;;;;;;23.40;4.43;;;-4.30;99.90;;;;;;5015055;28;20193;-60
2021/12/26 06:16:38;;;;;;;22.63;3.77;;;-4.30;99.90;;;;;;5014700;28;20236;-59
2021/12/26 06:19:04;;;;;;;11.13;3.50;;;-4.30;99.90;;;;;;5014984;28;20185;-61
2021/12/26 06:21:30;;;;;;;40.07;5.37;;;-4.30;99.90;;;;;;5014563;28;20181;-62
2021/12/26 06:23:56;;;;;;;9.23;2.73;;;-4.20;99.90;;;;;;5022151;28;20243;-59
2021/12/26 06:26:24;;;;;;;11.23;2.93;;;-4.10;99.90;;;;;;5034376;28;20592;-61
2021/12/26 06:28:50;;;;;;;9.10;3.13;;;-4.10;99.90;;;;;;5032355;28;20211;-62
2021/12/26 06:31:17;;;;;;;16.63;4.40;;;-4.10;99.90;;;;;;5014566;28;20216;-60
2021/12/26 06:33:43;;;;;;;13.17;2.83;;;-4.10;99.90;;;;;;5015007;28;20231;-60
2021/12/26 06:36:09;;;;;;;8.67;3.63;;;-4.10;99.90;;;;;;5014427;28;20182;-62
2021/12/26 06:38:37;;;;;;;12.23;3.87;;;-3.80;99.90;;;;;;5014655;28;20228;-61
2021/12/26 06:41:05;;;;;;;11.27;4.20;;;-3.90;99.90;;;;;;5014673;28;20601;-60
2021/12/26 06:43:31;;;;;;;7.37;3.07;;;-3.80;99.90;;;;;;5014373;28;20185;-60
2021/12/26 06:45:58;;;;;;;10.13;3.13;;;-3.90;99.90;;;;;;5014052;28;20235;-60
2021/12/26 06:48:24;;;;;;;31.00;5.77;;;-3.90;99.90;;;;;;5014346;28;20643;-60
2021/12/26 06:50:50;;;;;;;30.83;5.83;;;-3.90;99.90;;;;;;5022958;28;20193;-60
2021/12/26 06:53:17;;;;;;;13.90;4.43;;;-3.80;99.90;;;;;;5032027;28;20515;-60
2021/12/26 06:55:43;;;;;;;16.07;3.97;;;-3.80;99.90;;;;;;5014531;28;20181;-60
2021/12/26 06:58:09;;;;;;;66.57;9.47;;;-3.70;99.90;;;;;;5014162;28;20221;-60
2021/12/26 07:00:35;;;;;;;17.00;4.37;;;-3.70;99.90;;;;;;5013714;28;20185;-58
2021/12/26 07:03:01;;;;;;;5.07;2.80;;;-3.70;99.90;;;;;;5014500;28;20272;-61
2021/12/26 07:05:27;;;;;;;8.80;2.63;;;-3.80;99.90;;;;;;5013745;28;20181;-61
2021/12/26 07:07:53;;;;;;;9.03;3.23;;;-3.80;99.90;;;;;;5014061;28;20586;-61
2021/12/26 07:10:18;;;;;;;10.90;4.07;;;-3.70;99.90;;;;;;5013887;28;20177;-60
2021/12/26 07:12:44;;;;;;;7.63;2.87;;;-3.70;99.90;;;;;;5013997;28;20568;-59
2021/12/26 07:15:11;;;;;;;13.53;3.70;;;-3.70;99.90;;;;;;5013394;28;20193;-60
2021/12/26 07:17:38;;;;;;;3.47;2.00;;;-3.70;99.90;;;;;;5013471;28;20703;-59
2021/12/26 07:20:06;;;;;;;15.33;2.63;;;-3.60;99.90;;;;;;5013254;28;20189;-60
2021/12/26 07:22:33;;;;;;;10.33;2.87;;;-3.60;99.90;;;;;;5013084;28;20194;-59
2021/12/26 07:24:59;;;;;;;34.40;4.73;;;-3.60;99.90;;;;;;5029371;28;20188;-59
2021/12/26 07:27:25;;;;;;;8.30;3.23;;;-3.50;99.90;;;;;;5033038;28;20267;-60
2021/12/26 07:29:51;;;;;;;10.90;4.07;;;-3.50;99.90;;;;;;5023117;28;20198;-60
2021/12/26 07:32:17;;;;;;;20.43;5.40;;;-3.40;99.90;;;;;;5013282;28;20276;-60
2021/12/26 07:34:43;;;;;;;11.53;3.80;;;-3.40;99.90;;;;;;4995964;28;20288;-60
2021/12/26 07:37:09;;;;;;;25.03;4.93;;;-3.40;99.90;;;;;;5012633;28;20267;-69
2021/12/26 07:39:35;;;;;;;11.60;3.37;;;-3.30;99.90;;;;;;5013297;28;20178;-59
2021/12/26 07:42:01;;;;;;;13.23;4.77;;;-3.30;99.90;;;;;;5013188;28;20183;-60
2021/12/26 07:44:26;;;;;;;24.40;5.07;;;-3.20;99.90;;;;;;5013151;28;20182;-63
2021/12/26 07:46:52;;;;;;;23.27;5.27;;;-3.20;99.90;;;;;;5013074;28;20190;-61
2021/12/26 07:49:23;;;;;;;10.43;4.13;;;-3.10;99.90;;;;;;5012641;28;20182;-61
2021/12/26 07:51:50;;;;;;;66.03;6.50;;;-3.10;99.90;;;;;;5029711;28;20181;-61
2021/12/26 07:54:16;;;;;;;17.23;3.87;;;-2.90;99.90;;;;;;5022279;28;20199;-59
2021/12/26 07:56:43;;;;;;;30.37;5.23;;;-2.90;99.90;;;;;;5013229;28;20226;-61
2021/12/26 07:59:09;;;;;;;13.13;4.27;;;-3.10;99.90;;;;;;5012537;28;20185;-61
2021/12/26 08:01:36;;;;;;;42.50;6.43;;;-3.00;99.90;;;;;;5012173;28;20183;-60
2021/12/26 08:04:02;;;;;;;12.53;3.50;;;-2.80;99.90;;;;;;5012809;28;20216;-63
2021/12/26 08:06:31;;;;;;;50.37;7.17;;;-2.80;99.90;;;;;;4994882;28;20190;-62
2021/12/26 08:08:57;;;;;;;37.13;5.77;;;-2.80;99.90;;;;;;5012784;28;20237;-60
2021/12/26 08:11:24;;;;;;;9.07;3.43;;;-2.70;99.90;;;;;;5013025;28;20190;-61
2021/12/26 08:13:50;;;;;;;16.50;4.27;;;-2.70;99.90;;;;;;5012654;28;20714;-60
2021/12/26 08:16:15;;;;;;;21.00;4.50;;;-2.70;99.90;;;;;;5011917;28;20226;-60
2021/12/26 08:18:42;;;;;;;11.83;4.50;;;-2.70;99.90;;;;;;4994915;28;20218;-59
2021/12/26 08:21:09;;;;;;;31.43;5.77;;;-2.60;99.90;;;;;;5012359;28;20595;-62
2021/12/26 08:23:35;;;;;;;8.37;3.67;;;-2.50;99.90;;;;;;5016125;28;20198;-60
2021/12/26 08:26:03;;;;;;;45.20;5.47;;;-2.60;99.90;;;;;;5032056;28;20229;-61
2021/12/26 08:28:29;;;;;;;23.80;4.93;;;-2.60;99.90;;;;;;5032229;28;20598;-62
2021/12/26 08:30:54;;;;;;;20.67;3.97;;;-2.50;99.90;;;;;;5013219;28;20643;-60
2021/12/26 08:33:20;;;;;;;6.60;2.70;;;-2.40;99.90;;;;;;5011975;28;20282;-60
2021/12/26 08:35:47;;;;;;;9.20;2.83;;;-2.60;99.90;;;;;;5012155;28;20535;-60
2021/12/26 08:38:15;;;;;;;14.23;3.10;;;-2.90;99.90;;;;;;5012301;28;20218;-61
2021/12/26 08:40:42;;;;;;;12.73;3.20;;;-2.90;99.90;;;;;;5012470;28;20170;-59
2021/12/26 08:43:08;;;;;;;16.50;4.50;;;-3.00;99.90;;;;;;5012041;28;20182;-60
2021/12/26 08:45:36;;;;;;;14.87;4.00;;;-2.90;99.90;;;;;;5011959;28;20190;-61
2021/12/26 08:48:03;;;;;;;19.33;5.73;;;-2.80;99.90;;;;;;5012278;28;20182;-60
2021/12/26 08:50:29;;;;;;;20.73;5.97;;;-3.00;99.90;;;;;;5017521;28;20183;-61
2021/12/26 08:52:55;;;;;;;23.07;4.60;;;-3.10;99.90;;;;;;5031991;28;20185;-61
2021/12/26 08:55:23;;;;;;;23.13;5.20;;;-2.90;99.90;;;;;;4995119;28;20249;-60
2021/12/26 08:57:50;;;;;;;70.33;6.50;;;-2.70;99.90;;;;;;5012300;28;20229;-61
2021/12/26 09:00:17;;;;;;;33.30;5.80;;;-2.50;99.90;;;;;;5012046;28;20174;-61
2021/12/26 09:02:43;;;;;;;28.87;5.77;;;-2.50;99.90;;;;;;5012004;28;20726;-61
2021/12/26 09:05:11;;;;;;;14.57;3.73;;;-2.40;99.90;;;;;;5011429;28;20663;-66
2021/12/26 09:07:37;;;;;;;26.27;4.63;;;-2.40;99.90;;;;;;5012302;28;20575;-61
2021/12/26 09:10:04;;;;;;;53.10;7.10;;;-2.30;99.90;;;;;;5011757;28;20197;-61
2021/12/26 09:12:30;;;;;;;56.80;7.97;;;-2.10;99.90;;;;;;4994046;28;20179;-62
2021/12/26 09:14:56;;;;;;;63.70;8.30;;;-2.10;99.90;;;;;;5015416;28;20175;-60
2021/12/26 09:17:22;;;;;;;33.90;6.00;;;-2.10;99.90;;;;;;4981129;28;20686;-61
2021/12/26 09:19:48;;;;;;;28.00;6.50;;;-2.10;99.90;;;;;;5015270;28;20211;-60
2021/12/26 09:22:15;;;;;;;33.20;6.00;;;-2.20;99.90;;;;;;5015904;28;20188;-60
2021/12/26 09:24:42;;;;;;;19.53;4.37;;;-2.00;99.90;;;;;;5029059;28;20241;-60
2021/12/26 09:27:08;;;;;;;13.60;3.70;;;-1.90;99.90;;;;;;5035747;28;20193;-62
2021/12/26 09:29:34;;;;;;;10.83;4.30;;;-2.00;99.90;;;;;;5027912;28;20290;-60
2021/12/26 09:32:02;;;;;;;26.23;5.50;;;-1.90;99.90;;;;;;5015928;28;20178;-60
2021/12/26 09:34:30;;;;;;;10.60;3.97;;;-1.80;99.90;;;;;;5015115;28;20277;-61
2021/12/26 09:36:57;;;;;;;6.03;3.13;;;-1.80;99.90;;;;;;5015882;28;20223;-62
2021/12/26 09:39:23;;;;;;;12.97;5.30;;;-1.60;99.90;;;;;;5015564;28;20238;-61
2021/12/26 09:41:50;;;;;;;16.10;5.17;;;-1.60;99.90;;;;;;4997999;28;20179;-61
2021/12/26 09:44:16;;;;;;;12.33;4.33;;;-1.70;99.90;;;;;;5015895;28;20175;-62
2021/12/26 09:46:42;;;;;;;13.10;4.23;;;-1.50;99.90;;;;;;5015146;28;20190;-61
2021/12/26 09:49:09;;;;;;;27.67;6.13;;;-1.50;99.90;;;;;;5014982;28;20221;-61
2021/12/26 09:51:35;;;;;;;21.20;4.83;;;-1.60;99.90;;;;;;5030512;28;20254;-60
2021/12/26 09:54:01;;;;;;;17.90;4.33;;;-1.50;99.90;;;;;;5027579;28;20192;-60
2021/12/26 09:56:27;;;;;;;16.03;4.33;;;-1.50;99.90;;;;;;5014807;28;20523;-60
2021/12/26 09:59:02;;;;;;;44.40;6.90;;;-1.50;99.90;;;;;;5015822;28;20233;-61
2021/12/26 10:01:45;;;;;;;38.07;6.10;;;-1.60;99.90;;;;;;5015020;28;20166;-61
2021/12/26 10:04:25;;;;;;;20.03;4.60;;;-1.60;99.90;;;;;;5015201;28;20246;-59
2021/12/26 10:07:05;;;;;;;23.17;4.53;;;-1.80;99.90;;;;;;5015299;28;20514;-59
2021/12/26 10:09:32;;;;;;;29.70;7.37;;;-1.90;99.90;;;;;;5014810;28;20178;-60
2021/12/26 10:12:00;;;;;;;37.07;7.10;;;-1.80;99.90;;;;;;4997035;28;20248;-60
2021/12/26 10:14:31;;;;;;;9.97;3.77;;;-1.90;99.90;;;;;;5014409;28;20179;-61
2021/12/26 10:16:59;;;;;;;11.83;4.17;;;-2.00;99.90;;;;;;5014335;28;20233;-61
2021/12/26 10:19:25;;;;;;;22.63;6.87;;;-2.00;99.90;;;;;;5014101;28;20287;-61
2021/12/26 10:21:53;;;;;;;30.30;7.23;;;-1.90;99.90;;;;;;5014421;28;20258;-60
2021/12/26 10:24:21;;;;;;;31.73;7.90;;;-1.90;99.90;;;;;;5023744;28;20195;-61
2021/12/26 10:26:51;;;;;;;25.60;7.30;;;-1.70;99.90;;;;;;5034221;28;20174;-61
2021/12/26 10:29:34;;;;;;;25.87;7.43;;;-1.60;99.90;;;;;;5028368;28;20221;-61
2021/12/26 10:31:59;;;;;;;10.13;4.87;;;-1.90;99.90;;;;;;5013923;28;20172;-61
2021/12/26 10:34:36;;;;;;;8.30;2.50;;;-1.80;99.90;;;;;;5013505;28;20201;-61
2021/12/26 10:37:05;;;;;;;9.30;3.37;;;-1.90;99.90;;;;;;5014676;28;20213;-62
2021/12/26 10:39:34;;;;;;;9.13;4.53;;;-2.00;99.90;;;;;;5014060;28;20183;-61
2021/12/26 10:42:03;;;;;;;6.83;2.97;;;-1.90;99.90;;;;;;5014279;28;20258;-60
2021/12/26 10:44:36;;;;;;;10.40;3.07;;;-1.90;99.90;;;;;;5014004;28;20534;-60
2021/12/26 10:47:14;;;;;;;22.77;5.13;;;-1.90;99.90;;;;;;5013536;28;20261;-62
2021/12/26 10:49:51;;;;;;;11.37;4.27;;;-2.10;99.90;;;;;;5013749;28;20167;-60
2021/12/26 10:52:42;;;;;;;11.10;4.03;;;-2.00;99.90;;;;;;5013905;28;20384;-61
2021/12/26 10:55:14;;;;;;;14.73;3.93;;;-2.30;99.90;;;;;;5004105;28;20206;-60
2021/12/26 10:57:44;;;;;;;11.50;5.00;;;-2.30;99.90;;;;;;5014020;28;20209;-61
2021/12/26 11:00:40;;;;;;;25.30;7.33;;;-2.30;99.90;;;;;;5013954;28;20182;-61
2021/12/26 11:03:09;;;;;;;12.97;4.00;;;-2.30;99.90;;;;;;4996279;28;20198;-62
2021/12/26 11:05:47;;;;;;;15.57;7.60;;;-2.40;99.90;;;;;;5012701;28;20612;-60
2021/12/26 11:08:15;;;;;;;114.10;27.10;;;-2.30;99.90;;;;;;5013589;28;20229;-60
2021/12/26 11:10:46;;;;;;;46.23;13.50;;;-2.30;99.90;;;;;;5013855;28;20179;-61
2021/12/26 11:13:23;;;;;;;6.63;2.47;;;-2.30;99.90;;;;;;5013354;28;20262;-63
2021/12/26 11:15:53;;;;;;;9.47;2.83;;;-2.30;99.90;;;;;;5013486;28;20547;-59
2021/12/26 11:18:19;;;;;;;9.33;3.80;;;-2.30;99.90;;;;;;5013486;28;20225;-63
2021/12/26 11:20:52;;;;;;;11.87;3.37;;;-2.40;99.90;;;;;;5013638;28;20190;-61
2021/12/26 11:23:21;;;;;;;13.13;3.80;;;-2.50;99.90;;;;;;5015116;28;20190;-61
2021/12/26 11:25:54;;;;;;;21.53;4.33;;;-2.40;99.90;;;;;;5033468;28;20171;-61
2021/12/26 11:28:26;;;;;;;18.73;4.50;;;-2.30;99.90;;;;;;5015173;28;20237;-61
2021/12/26 11:31:04;;;;;;;10.83;4.20;;;-2.20;99.90;;;;;;4996502;28;20182;-59
2021/12/26 11:33:30;;;;;;;11.17;3.83;;;-2.10;99.90;;;;;;4995027;28;20183;-60
2021/12/26 11:35:58;;;;;;;24.17;4.17;;;-2.30;99.90;;;;;;5012280;28;20251;-61
2021/12/26 11:38:25;;;;;;;13.67;4.30;;;-2.40;99.90;;;;;;5012555;28;20276;-62
2021/12/26 11:40:56;;;;;;;28.50;7.07;;;-2.40;99.90;;;;;;5012019;28;20456;-63
2021/12/26 11:43:59;;;;;;;8.23;3.27;;;-2.30;99.90;;;;;;5032406;28;20170;-65
2021/12/26 11:46:30;;;;;;;8.80;2.67;;;-2.40;99.90;;;;;;5032408;28;20182;-64
2021/12/26 11:49:12;;;;;;;15.53;3.37;;;-2.40;99.90;;;;;;5031637;28;20213;-65
2021/12/26 11:52:14;;;;;;;11.53;3.97;;;-2.60;99.90;;;;;;5029968;28;20182;-65
2021/12/26 11:55:11;;;;;;;7.90;2.43;;;-2.70;99.90;;;;;;5032463;28;20192;-63
2021/12/26 11:58:03;;;;;;;11.70;3.13;;;-2.70;99.90;;;;;;5032116;28;20232;-63
2021/12/26 12:00:34;;;;;;;39.37;9.13;;;-2.80;99.90;;;;;;5031600;28;20532;-63
2021/12/26 12:03:03;;;;;;;45.50;12.93;;;-2.80;99.90;;;;;;5031796;28;20703;-64
2021/12/26 12:05:39;;;;;;;24.67;7.73;;;-2.70;99.90;;;;;;5031045;28;20182;-61
2021/12/26 12:08:29;;;;;;;11.17;3.80;;;-2.70;99.90;;;;;;5032086;28;20185;-63
2021/12/26 12:10:55;;;;;;;14.47;3.53;;;-2.80;99.90;;;;;;5013036;28;20733;-70
2021/12/26 12:13:26;;;;;;;14.50;4.73;;;-2.80;99.90;;;;;;5031600;28;20272;-61
2021/12/26 12:15:55;;;;;;;13.90;4.23;;;-2.90;99.90;;;;;;5013942;28;20193;-61
2021/12/26 12:18:29;;;;;;;10.57;4.57;;;-2.90;99.90;;;;;;5031283;28;20688;-60
2021/12/26 12:21:14;;;;;;;14.30;4.70;;;-2.80;99.90;;;;;;5031811;28;20220;-61
2021/12/26 12:23:54;;;;;;;10.07;4.53;;;-2.80;99.90;;;;;;5031388;28;20194;-63
2021/12/26 12:26:44;;;;;;;9.37;4.27;;;-2.80;99.90;;;;;;5031490;28;20186;-60
2021/12/26 12:29:13;;;;;;;15.97;5.40;;;-2.70;99.90;;;;;;5026552;28;20675;-64
2021/12/26 12:31:40;;;;;;;16.70;5.67;;;-2.70;99.90;;;;;;5010686;28;20178;-64
2021/12/26 12:34:12;;;;;;;17.80;6.13;;;-2.70;99.90;;;;;;5010806;28;20183;-62
2021/12/26 12:36:41;;;;;;;11.60;5.83;;;-2.70;99.90;;;;;;5011142;28;20658;-62
2021/12/26 12:39:09;;;;;;;20.53;8.43;;;-2.60;99.90;;;;;;5010821;28;20213;-65
2021/12/26 12:41:39;;;;;;;19.70;6.33;;;-2.60;99.90;;;;;;5009743;28;20183;-63
2021/12/26 12:44:25;;;;;;;11.93;4.53;;;-2.70;99.90;;;;;;5009891;28;20631;-62
2021/12/26 12:47:06;;;;;;;15.37;6.70;;;-2.70;99.90;;;;;;5009432;28;20187;-63
2021/12/26 12:49:41;;;;;;;14.73;6.73;;;-2.60;99.90;;;;;;5010240;28;20199;-62
2021/12/26 12:52:08;;;;;;;16.40;5.40;;;-2.70;99.90;;;;;;5029860;28;20193;-61